sensor_id;sensor_type;location;lat;lon;timestamp;temperature;humidity
48744;DHT22;34538;48.836;9.174;2022-12-11T00:01:48;-1.80;99.90
48744;DHT22;34538;48.836;9.174;2022-12-11T00:04:15;-1.80;99.90
48744;DHT22;34538;48.836;9.174;2022-12-11T00:06:43;-1.80;99.90
48744;DHT22;34538;48.836;9.174;2022-12-11T00:09:10;-1.80;99.90
48744;DHT22;34538;48.836;9.174;2022-12-11T00:11:37;-1.90;99.90
48744;DHT22;34538;48.836;9.174;2022-12-11T00:14:04;-1.90;99.90
48744;DHT22;34538;48.836;9.174;2022-12-11T00:16:30;-1.90;99.90
48744;DHT22;34538;48.836;9.174;2022-12-11T00:18:57;-1.90;99.90
48744;DHT22;34538;48.836;9.174;2022-12-11T00:21:24;-1.90;99.90
48744;DHT22;34538;48.836;9.174;2022-12-11T00:23:53;-1.90;99.90
48744;DHT22;34538;48.836;9.174;2022-12-11T00:26:20;-1.90;99.90
48744;DHT22;34538;48.836;9.174;2022-12-11T00:28:50;-1.80;99.90
48744;DHT22;34538;48.836;9.174;2022-12-11T00:31:20;-1.80;99.90
48744;DHT22;34538;48.836;9.174;2022-12-11T00:33:48;-1.80;99.90
48744;DHT22;34538;48.836;9.174;2022-12-11T00:36:16;-1.70;99.90
48744;DHT22;34538;48.836;9.174;2022-12-11T00:38:43;-1.60;99.90
48744;DHT22;34538;48.836;9.174;2022-12-11T00:41:11;-1.60;99.90
48744;DHT22;34538;48.836;9.174;2022-12-11T00:43:38;-1.50;99.90
48744;DHT22;34538;48.836;9.174;2022-12-11T00:46:05;-1.50;99.90
48744;DHT22;34538;48.836;9.174;2022-12-11T00:48:33;-1.40;99.90
48744;DHT22;34538;48.836;9.174;2022-12-11T00:51:00;-1.40;99.90
48744;DHT22;34538;48.836;9.174;2022-12-11T00:53:27;-1.30;99.90
48744;DHT22;34538;48.836;9.174;2022-12-11T00:55:54;-1.30;99.90
48744;DHT22;34538;48.836;9.174;2022-12-11T00:58:22;-1.20;99.90
48744;DHT22;34538;48.836;9.174;2022-12-11T01:00:51;-1.20;99.90
48744;DHT22;34538;48.836;9.174;2022-12-11T01:03:17;-1.10;99.90
48744;DHT22;34538;48.836;9.174;2022-12-11T01:05:51;-1.10;99.90
48744;DHT22;34538;48.836;9.174;2022-12-11T01:08:18;-1.00;99.90
48744;DHT22;34538;48.836;9.174;2022-12-11T01:10:45;-1.00;99.90
48744;DHT22;34538;48.836;9.174;2022-12-11T01:13:11;-0.90;99.90
48744;DHT22;34538;48.836;9.174;2022-12-11T01:15:42;-0.90;99.90
48744;DHT22;34538;48.836;9.174;2022-12-11T01:18:09;-0.80;99.90
48744;DHT22;34538;48.836;9.174;2022-12-11T01:20:37;-0.80;99.90
48744;DHT22;34538;48.836;9.174;2022-12-11T01:23:05;-0.80;99.90
48744;DHT22;34538;48.836;9.174;2022-12-11T01:25:34;-0.70;99.90
48744;DHT22;34538;48.836;9.174;2022-12-11T01:28:03;-0.70;99.90
48744;DHT22;34538;48.836;9.174;2022-12-11T01:30:30;-0.70;99.90
48744;DHT22;34538;48.836;9.174;2022-12-11T01:32:58;-0.60;99.90
48744;DHT22;34538;48.836;9.174;2022-12-11T01:35:25;-0.70;99.90
48744;DHT22;34538;48.836;9.174;2022-12-11T01:37:52;-0.60;99.90
48744;DHT22;34538;48.836;9.174;2022-12-11T01:40:20;-0.60;99.90
48744;DHT22;34538;48.836;9.174;2022-12-11T01:42:47;-0.60;99.90
48744;DHT22;34538;48.836;9.174;2022-12-11T01:45:35;-0.50;99.90
48744;DHT22;34538;48.836;9.174;2022-12-11T01:48:09;-0.50;99.90
48744;DHT22;34538;48.836;9.174;2022-12-11T01:50:40;-0.50;99.90
48744;DHT22;34538;48.836;9.174;2022-12-11T01:53:09;-0.50;99.90
48744;DHT22;34538;48.836;9.174;2022-12-11T01:55:38;-0.50;99.90
48744;DHT22;34538;48.836;9.174;2022-12-11T01:58:06;-0.50;99.90
48744;DHT22;34538;48.836;9.174;2022-12-11T02:03:58;-0.40;99.90
48744;DHT22;34538;48.836;9.174;2022-12-11T02:06:34;-0.40;99.90
48744;DHT22;34538;48.836;9.174;2022-12-11T02:09:02;-0.40;99.90
48744;DHT22;34538;48.836;9.174;2022-12-11T02:11:37;-0.40;99.90
48744;DHT22;34538;48.836;9.174;2022-12-11T02:14:11;-0.30;99.90
48744;DHT22;34538;48.836;9.174;2022-12-11T02:16:44;-0.30;99.90
48744;DHT22;34538;48.836;9.174;2022-12-11T02:19:21;-0.30;99.90
48744;DHT22;34538;48.836;9.174;2022-12-11T02:21:54;-0.30;99.90
48744;DHT22;34538;48.836;9.174;2022-12-11T02:24:40;-0.30;99.90
48744;DHT22;34538;48.836;9.174;2022-12-11T02:27:29;-0.30;99.90
48744;DHT22;34538;48.836;9.174;2022-12-11T02:30:03;-0.30;99.90
48744;DHT22;34538;48.836;9.174;2022-12-11T02:32:34;-0.30;99.90
48744;DHT22;34538;48.836;9.174;2022-12-11T02:35:07;-0.20;99.90
48744;DHT22;34538;48.836;9.174;2022-12-11T02:37:36;-0.20;99.90
48744;DHT22;34538;48.836;9.174;2022-12-11T02:40:08;-0.20;99.90
48744;DHT22;34538;48.836;9.174;2022-12-11T02:42:38;-0.20;99.90
48744;DHT22;34538;48.836;9.174;2022-12-11T02:45:08;-0.10;99.90
48744;DHT22;34538;48.836;9.174;2022-12-11T02:47:36;-0.10;99.90
48744;DHT22;34538;48.836;9.174;2022-12-11T02:50:08;-0.10;99.90
48744;DHT22;34538;48.836;9.174;2022-12-11T02:52:36;-0.10;99.90
48744;DHT22;34538;48.836;9.174;2022-12-11T02:55:06;0.00;99.90
48744;DHT22;34538;48.836;9.174;2022-12-11T02:57:38;-0.10;99.90
48744;DHT22;34538;48.836;9.174;2022-12-11T03:00:10;0.00;99.90
48744;DHT22;34538;48.836;9.174;2022-12-11T03:02:37;0.00;99.90
48744;DHT22;34538;48.836;9.174;2022-12-11T03:05:05;0.00;99.90
48744;DHT22;34538;48.836;9.174;2022-12-11T03:07:34;0.00;99.90
48744;DHT22;34538;48.836;9.174;2022-12-11T03:10:04;0.00;99.90
48744;DHT22;34538;48.836;9.174;2022-12-11T03:12:35;0.10;99.90
48744;DHT22;34538;48.836;9.174;2022-12-11T03:15:06;0.00;99.90
48744;DHT22;34538;48.836;9.174;2022-12-11T03:17:43;0.00;99.90
48744;DHT22;34538;48.836;9.174;2022-12-11T03:20:22;0.10;99.90
48744;DHT22;34538;48.836;9.174;2022-12-11T03:22:56;0.10;99.90
48744;DHT22;34538;48.836;9.174;2022-12-11T03:25:28;0.10;99.90
48744;DHT22;34538;48.836;9.174;2022-12-11T03:27:59;0.10;99.90
48744;DHT22;34538;48.836;9.174;2022-12-11T03:30:28;0.10;99.90
48744;DHT22;34538;48.836;9.174;2022-12-11T03:33:02;0.10;99.90
48744;DHT22;34538;48.836;9.174;2022-12-11T03:35:32;0.10;99.90
48744;DHT22;34538;48.836;9.174;2022-12-11T03:38:03;0.10;99.90
48744;DHT22;34538;48.836;9.174;2022-12-11T03:40:32;0.20;99.90
48744;DHT22;34538;48.836;9.174;2022-12-11T03:43:00;0.20;99.90
48744;DHT22;34538;48.836;9.174;2022-12-11T03:45:29;0.20;99.90
48744;DHT22;34538;48.836;9.174;2022-12-11T03:47:58;0.10;99.90
48744;DHT22;34538;48.836;9.174;2022-12-11T03:50:27;0.10;99.90
48744;DHT22;34538;48.836;9.174;2022-12-11T03:52:56;0.10;99.90
48744;DHT22;34538;48.836;9.174;2022-12-11T03:55:25;0.10;99.90
48744;DHT22;34538;48.836;9.174;2022-12-11T03:57:53;0.10;99.90
48744;DHT22;34538;48.836;9.174;2022-12-11T04:00:20;0.10;99.90
48744;DHT22;34538;48.836;9.174;2022-12-11T04:02:48;0.10;99.90
48744;DHT22;34538;48.836;9.174;2022-12-11T04:05:36;0.10;99.90
48744;DHT22;34538;48.836;9.174;2022-12-11T04:08:03;0.00;99.90
48744;DHT22;34538;48.836;9.174;2022-12-11T04:10:30;0.10;99.90
48744;DHT22;34538;48.836;9.174;2022-12-11T04:12:57;0.00;99.90
48744;DHT22;34538;48.836;9.174;2022-12-11T04:15:24;0.00;99.90
48744;DHT22;34538;48.836;9.174;2022-12-11T04:17:49;0.00;99.90
48744;DHT22;34538;48.836;9.174;2022-12-11T04:20:33;0.00;99.90
48744;DHT22;34538;48.836;9.174;2022-12-11T04:23:19;0.00;99.90
48744;DHT22;34538;48.836;9.174;2022-12-11T04:26:06;0.00;99.90
48744;DHT22;34538;48.836;9.174;2022-12-11T04:28:33;0.00;99.90
48744;DHT22;34538;48.836;9.174;2022-12-11T04:31:00;0.00;99.90
48744;DHT22;34538;48.836;9.174;2022-12-11T04:33:28;0.00;99.90
48744;DHT22;34538;48.836;9.174;2022-12-11T04:35:56;0.00;99.90
48744;DHT22;34538;48.836;9.174;2022-12-11T04:38:25;0.00;99.90
48744;DHT22;34538;48.836;9.174;2022-12-11T04:40:57;0.00;99.90
48744;DHT22;34538;48.836;9.174;2022-12-11T04:43:24;0.00;99.90
48744;DHT22;34538;48.836;9.174;2022-12-11T04:46:00;-0.10;99.90
48744;DHT22;34538;48.836;9.174;2022-12-11T04:48:26;0.00;99.90
48744;DHT22;34538;48.836;9.174;2022-12-11T04:50:53;0.00;99.90
48744;DHT22;34538;48.836;9.174;2022-12-11T04:53:20;-0.10;99.90
48744;DHT22;34538;48.836;9.174;2022-12-11T04:55:48;-0.10;99.90
48744;DHT22;34538;48.836;9.174;2022-12-11T04:58:15;-0.10;99.90
48744;DHT22;34538;48.836;9.174;2022-12-11T05:00:42;-0.10;99.90
48744;DHT22;34538;48.836;9.174;2022-12-11T05:03:09;-0.10;99.90
48744;DHT22;34538;48.836;9.174;2022-12-11T05:05:36;-0.10;99.90
48744;DHT22;34538;48.836;9.174;2022-12-11T05:08:04;-0.10;99.90
48744;DHT22;34538;48.836;9.174;2022-12-11T05:10:30;-0.10;99.90
48744;DHT22;34538;48.836;9.174;2022-12-11T05:12:59;-0.20;99.90
48744;DHT22;34538;48.836;9.174;2022-12-11T05:15:25;-0.20;99.90
48744;DHT22;34538;48.836;9.174;2022-12-11T05:17:52;-0.20;99.90
48744;DHT22;34538;48.836;9.174;2022-12-11T05:20:19;-0.20;99.90
48744;DHT22;34538;48.836;9.174;2022-12-11T05:22:46;-0.30;99.90
48744;DHT22;34538;48.836;9.174;2022-12-11T05:25:13;-0.40;99.90
48744;DHT22;34538;48.836;9.174;2022-12-11T05:27:39;-0.50;99.90
48744;DHT22;34538;48.836;9.174;2022-12-11T05:30:09;-0.50;99.90
48744;DHT22;34538;48.836;9.174;2022-12-11T05:32:36;-0.60;99.90
48744;DHT22;34538;48.836;9.174;2022-12-11T05:35:03;-0.60;99.90
48744;DHT22;34538;48.836;9.174;2022-12-11T05:37:32;-0.70;99.90
48744;DHT22;34538;48.836;9.174;2022-12-11T05:40:00;-0.80;99.90
48744;DHT22;34538;48.836;9.174;2022-12-11T05:42:26;-0.70;99.90
48744;DHT22;34538;48.836;9.174;2022-12-11T05:44:53;-0.80;99.90
48744;DHT22;34538;48.836;9.174;2022-12-11T05:47:21;-0.80;99.90
48744;DHT22;34538;48.836;9.174;2022-12-11T05:49:48;-0.90;99.90
48744;DHT22;34538;48.836;9.174;2022-12-11T05:52:15;-0.90;99.90
48744;DHT22;34538;48.836;9.174;2022-12-11T05:54:42;-0.90;99.90
48744;DHT22;34538;48.836;9.174;2022-12-11T05:57:09;-1.00;99.90
48744;DHT22;34538;48.836;9.174;2022-12-11T05:59:36;-1.00;99.90
48744;DHT22;34538;48.836;9.174;2022-12-11T06:02:02;-1.10;99.90
48744;DHT22;34538;48.836;9.174;2022-12-11T06:04:30;-1.20;99.90
48744;DHT22;34538;48.836;9.174;2022-12-11T06:06:57;-1.20;99.90
48744;DHT22;34538;48.836;9.174;2022-12-11T06:09:24;-1.20;99.90
48744;DHT22;34538;48.836;9.174;2022-12-11T06:11:51;-1.30;99.90
48744;DHT22;34538;48.836;9.174;2022-12-11T06:14:18;-1.20;99.90
48744;DHT22;34538;48.836;9.174;2022-12-11T06:16:44;-1.30;99.90
48744;DHT22;34538;48.836;9.174;2022-12-11T06:19:12;-1.30;99.90
48744;DHT22;34538;48.836;9.174;2022-12-11T06:21:41;-1.40;99.90
48744;DHT22;34538;48.836;9.174;2022-12-11T06:24:09;-1.40;99.90
48744;DHT22;34538;48.836;9.174;2022-12-11T06:26:36;-1.40;99.90
48744;DHT22;34538;48.836;9.174;2022-12-11T06:29:03;-1.50;99.90
48744;DHT22;34538;48.836;9.174;2022-12-11T06:31:30;-1.50;99.90
48744;DHT22;34538;48.836;9.174;2022-12-11T06:33:57;-1.60;99.90
48744;DHT22;34538;48.836;9.174;2022-12-11T06:36:24;-1.60;99.90
48744;DHT22;34538;48.836;9.174;2022-12-11T06:38:53;-1.70;99.90
48744;DHT22;34538;48.836;9.174;2022-12-11T06:41:21;-1.70;99.90
48744;DHT22;34538;48.836;9.174;2022-12-11T06:43:47;-1.80;99.90
48744;DHT22;34538;48.836;9.174;2022-12-11T06:46:17;-1.80;99.90
48744;DHT22;34538;48.836;9.174;2022-12-11T06:48:45;-1.90;99.90
48744;DHT22;34538;48.836;9.174;2022-12-11T06:51:14;-1.90;99.90
48744;DHT22;34538;48.836;9.174;2022-12-11T06:53:41;-1.90;99.90
48744;DHT22;34538;48.836;9.174;2022-12-11T06:56:11;-1.90;99.90
48744;DHT22;34538;48.836;9.174;2022-12-11T06:58:39;-2.00;99.90
48744;DHT22;34538;48.836;9.174;2022-12-11T07:01:14;-2.00;99.90
48744;DHT22;34538;48.836;9.174;2022-12-11T07:03:41;-2.00;99.90
48744;DHT22;34538;48.836;9.174;2022-12-11T07:06:08;-2.00;99.90
48744;DHT22;34538;48.836;9.174;2022-12-11T07:08:35;-1.90;99.90
48744;DHT22;34538;48.836;9.174;2022-12-11T07:11:03;-1.90;99.90
48744;DHT22;34538;48.836;9.174;2022-12-11T07:13:32;-1.90;99.90
48744;DHT22;34538;48.836;9.174;2022-12-11T07:16:00;-1.80;99.90
48744;DHT22;34538;48.836;9.174;2022-12-11T07:18:29;-1.80;99.90
48744;DHT22;34538;48.836;9.174;2022-12-11T07:20:57;-1.70;99.90
48744;DHT22;34538;48.836;9.174;2022-12-11T07:23:24;-1.70;99.90
48744;DHT22;34538;48.836;9.174;2022-12-11T07:25:51;-1.70;99.90
48744;DHT22;34538;48.836;9.174;2022-12-11T07:28:18;-1.60;99.90
48744;DHT22;34538;48.836;9.174;2022-12-11T07:30:46;-1.60;99.90
48744;DHT22;34538;48.836;9.174;2022-12-11T07:33:13;-1.60;99.90
48744;DHT22;34538;48.836;9.174;2022-12-11T07:35:40;-1.50;99.90
48744;DHT22;34538;48.836;9.174;2022-12-11T07:38:07;-1.40;99.90
48744;DHT22;34538;48.836;9.174;2022-12-11T07:40:34;-1.30;99.90
48744;DHT22;34538;48.836;9.174;2022-12-11T07:43:01;-1.20;99.90
48744;DHT22;34538;48.836;9.174;2022-12-11T07:45:28;-1.20;99.90
48744;DHT22;34538;48.836;9.174;2022-12-11T07:47:56;-1.10;99.90
48744;DHT22;34538;48.836;9.174;2022-12-11T07:50:23;-1.00;99.90
48744;DHT22;34538;48.836;9.174;2022-12-11T07:52:50;-1.00;99.90
48744;DHT22;34538;48.836;9.174;2022-12-11T07:55:17;-0.90;99.90
48744;DHT22;34538;48.836;9.174;2022-12-11T07:57:44;-0.90;99.90
48744;DHT22;34538;48.836;9.174;2022-12-11T08:00:11;-0.80;99.90
48744;DHT22;34538;48.836;9.174;2022-12-11T08:02:38;-0.80;99.90
48744;DHT22;34538;48.836;9.174;2022-12-11T08:05:07;-0.70;99.90
48744;DHT22;34538;48.836;9.174;2022-12-11T08:07:34;-0.70;99.90
48744;DHT22;34538;48.836;9.174;2022-12-11T08:10:01;-0.60;99.90
48744;DHT22;34538;48.836;9.174;2022-12-11T08:12:28;-0.60;99.90
48744;DHT22;34538;48.836;9.174;2022-12-11T08:14:55;-0.50;99.90
48744;DHT22;34538;48.836;9.174;2022-12-11T08:17:22;-0.50;99.90
48744;DHT22;34538;48.836;9.174;2022-12-11T08:19:49;-0.40;99.90
48744;DHT22;34538;48.836;9.174;2022-12-11T08:22:17;-0.40;99.90
48744;DHT22;34538;48.836;9.174;2022-12-11T08:24:45;-0.40;99.90
48744;DHT22;34538;48.836;9.174;2022-12-11T08:27:12;-0.40;99.90
48744;DHT22;34538;48.836;9.174;2022-12-11T08:29:39;-0.30;99.90
48744;DHT22;34538;48.836;9.174;2022-12-11T08:32:05;-0.30;99.90
48744;DHT22;34538;48.836;9.174;2022-12-11T08:34:32;-0.30;99.90
48744;DHT22;34538;48.836;9.174;2022-12-11T08:36:59;-0.30;99.90
48744;DHT22;34538;48.836;9.174;2022-12-11T08:39:27;-0.30;99.90
48744;DHT22;34538;48.836;9.174;2022-12-11T08:41:54;-0.30;99.90
48744;DHT22;34538;48.836;9.174;2022-12-11T08:44:21;-0.30;99.90
48744;DHT22;34538;48.836;9.174;2022-12-11T08:46:49;-0.30;99.90
48744;DHT22;34538;48.836;9.174;2022-12-11T08:49:16;-0.30;99.90
48744;DHT22;34538;48.836;9.174;2022-12-11T08:51:43;-0.30;99.90
48744;DHT22;34538;48.836;9.174;2022-12-11T08:54:10;-0.30;99.90
48744;DHT22;34538;48.836;9.174;2022-12-11T08:56:38;-0.30;99.90
48744;DHT22;34538;48.836;9.174;2022-12-11T08:59:05;-0.20;99.90
48744;DHT22;34538;48.836;9.174;2022-12-11T09:01:31;-0.20;99.90
48744;DHT22;34538;48.836;9.174;2022-12-11T09:03:58;-0.20;99.90
48744;DHT22;34538;48.836;9.174;2022-12-11T09:06:27;-0.20;99.90
48744;DHT22;34538;48.836;9.174;2022-12-11T09:08:56;-0.10;99.90
48744;DHT22;34538;48.836;9.174;2022-12-11T09:11:26;-0.10;99.90
48744;DHT22;34538;48.836;9.174;2022-12-11T09:13:54;-0.10;99.90
48744;DHT22;34538;48.836;9.174;2022-12-11T09:16:23;-0.10;99.90
48744;DHT22;34538;48.836;9.174;2022-12-11T09:18:51;0.00;99.90
48744;DHT22;34538;48.836;9.174;2022-12-11T09:21:20;0.00;99.90
48744;DHT22;34538;48.836;9.174;2022-12-11T09:23:47;0.10;99.90
48744;DHT22;34538;48.836;9.174;2022-12-11T09:26:16;0.10;99.90
48744;DHT22;34538;48.836;9.174;2022-12-11T09:28:44;0.10;99.90
48744;DHT22;34538;48.836;9.174;2022-12-11T09:31:14;0.20;99.90
48744;DHT22;34538;48.836;9.174;2022-12-11T09:33:42;0.20;99.90
48744;DHT22;34538;48.836;9.174;2022-12-11T09:36:09;0.20;99.90
48744;DHT22;34538;48.836;9.174;2022-12-11T09:38:37;0.30;99.90
48744;DHT22;34538;48.836;9.174;2022-12-11T09:41:27;0.40;99.90
48744;DHT22;34538;48.836;9.174;2022-12-11T09:44:00;0.50;99.90
48744;DHT22;34538;48.836;9.174;2022-12-11T09:46:31;0.50;99.90
48744;DHT22;34538;48.836;9.174;2022-12-11T09:48:58;0.50;99.90
48744;DHT22;34538;48.836;9.174;2022-12-11T09:51:31;0.50;99.90
48744;DHT22;34538;48.836;9.174;2022-12-11T09:54:02;0.40;99.90
48744;DHT22;34538;48.836;9.174;2022-12-11T09:56:32;0.40;99.90
48744;DHT22;34538;48.836;9.174;2022-12-11T09:59:01;0.40;99.90
48744;DHT22;34538;48.836;9.174;2022-12-11T10:01:37;0.40;99.90
48744;DHT22;34538;48.836;9.174;2022-12-11T10:04:20;0.50;99.90
48744;DHT22;34538;48.836;9.174;2022-12-11T10:07:00;0.50;99.90
48744;DHT22;34538;48.836;9.174;2022-12-11T10:09:35;0.60;99.90
48744;DHT22;34538;48.836;9.174;2022-12-11T10:12:15;0.60;99.90
48744;DHT22;34538;48.836;9.174;2022-12-11T10:14:53;0.60;99.90
48744;DHT22;34538;48.836;9.174;2022-12-11T10:17:27;0.60;99.90
48744;DHT22;34538;48.836;9.174;2022-12-11T10:19:56;0.60;99.90
48744;DHT22;34538;48.836;9.174;2022-12-11T10:22:29;0.70;99.90
48744;DHT22;34538;48.836;9.174;2022-12-11T10:24:59;0.70;99.90
48744;DHT22;34538;48.836;9.174;2022-12-11T10:27:29;0.70;99.90
48744;DHT22;34538;48.836;9.174;2022-12-11T10:30:03;0.80;99.90
48744;DHT22;34538;48.836;9.174;2022-12-11T10:32:42;0.70;99.90
48744;DHT22;34538;48.836;9.174;2022-12-11T10:35:16;0.70;99.90
48744;DHT22;34538;48.836;9.174;2022-12-11T10:37:44;0.70;99.90
48744;DHT22;34538;48.836;9.174;2022-12-11T10:40:12;0.80;99.90
48744;DHT22;34538;48.836;9.174;2022-12-11T10:42:39;0.80;99.90
48744;DHT22;34538;48.836;9.174;2022-12-11T10:45:07;0.80;99.90
48744;DHT22;34538;48.836;9.174;2022-12-11T10:47:35;0.90;99.90
48744;DHT22;34538;48.836;9.174;2022-12-11T10:50:03;0.90;99.90
48744;DHT22;34538;48.836;9.174;2022-12-11T10:52:33;0.90;99.90
48744;DHT22;34538;48.836;9.174;2022-12-11T10:55:05;0.90;99.90
48744;DHT22;34538;48.836;9.174;2022-12-11T10:57:34;1.00;99.90
48744;DHT22;34538;48.836;9.174;2022-12-11T11:00:03;1.10;99.90
48744;DHT22;34538;48.836;9.174;2022-12-11T11:02:32;1.00;99.90
48744;DHT22;34538;48.836;9.174;2022-12-11T11:05:14;1.00;99.90
48744;DHT22;34538;48.836;9.174;2022-12-11T11:07:41;1.10;99.90
48744;DHT22;34538;48.836;9.174;2022-12-11T11:10:15;1.10;99.90
48744;DHT22;34538;48.836;9.174;2022-12-11T11:12:43;1.10;99.90
48744;DHT22;34538;48.836;9.174;2022-12-11T11:15:12;1.10;99.90
48744;DHT22;34538;48.836;9.174;2022-12-11T11:17:45;1.20;99.90
48744;DHT22;34538;48.836;9.174;2022-12-11T11:20:16;1.20;99.90
48744;DHT22;34538;48.836;9.174;2022-12-11T11:22:45;1.20;99.90
48744;DHT22;34538;48.836;9.174;2022-12-11T11:25:18;1.20;99.90
48744;DHT22;34538;48.836;9.174;2022-12-11T11:27:49;1.10;99.90
48744;DHT22;34538;48.836;9.174;2022-12-11T11:30:18;1.10;99.90
48744;DHT22;34538;48.836;9.174;2022-12-11T11:32:45;1.10;99.90
48744;DHT22;34538;48.836;9.174;2022-12-11T11:35:20;1.10;99.90
48744;DHT22;34538;48.836;9.174;2022-12-11T11:37:55;1.10;99.90
48744;DHT22;34538;48.836;9.174;2022-12-11T11:40:26;1.20;99.90
48744;DHT22;34538;48.836;9.174;2022-12-11T11:43:01;1.20;99.90
48744;DHT22;34538;48.836;9.174;2022-12-11T11:45:35;1.20;99.90
48744;DHT22;34538;48.836;9.174;2022-12-11T11:48:12;1.20;99.90
48744;DHT22;34538;48.836;9.174;2022-12-11T11:50:45;1.30;99.90
48744;DHT22;34538;48.836;9.174;2022-12-11T11:53:19;1.30;99.90
48744;DHT22;34538;48.836;9.174;2022-12-11T11:55:51;1.40;99.90
48744;DHT22;34538;48.836;9.174;2022-12-11T11:58:23;1.40;99.90
48744;DHT22;34538;48.836;9.174;2022-12-11T12:00:53;1.40;99.90
48744;DHT22;34538;48.836;9.174;2022-12-11T12:03:22;1.40;99.90
48744;DHT22;34538;48.836;9.174;2022-12-11T12:05:54;1.50;99.90
48744;DHT22;34538;48.836;9.174;2022-12-11T12:08:36;1.50;99.90
48744;DHT22;34538;48.836;9.174;2022-12-11T12:11:12;1.50;99.90
48744;DHT22;34538;48.836;9.174;2022-12-11T12:13:47;1.60;99.90
48744;DHT22;34538;48.836;9.174;2022-12-11T12:16:23;1.50;99.90
48744;DHT22;34538;48.836;9.174;2022-12-11T12:18:58;1.50;99.90
48744;DHT22;34538;48.836;9.174;2022-12-11T12:21:33;1.50;99.90
48744;DHT22;34538;48.836;9.174;2022-12-11T12:24:09;1.60;99.90
48744;DHT22;34538;48.836;9.174;2022-12-11T12:26:40;1.50;99.90
48744;DHT22;34538;48.836;9.174;2022-12-11T12:29:17;1.50;99.90
48744;DHT22;34538;48.836;9.174;2022-12-11T12:32:04;1.50;99.90
48744;DHT22;34538;48.836;9.174;2022-12-11T12:34:56;1.50;99.90
48744;DHT22;34538;48.836;9.174;2022-12-11T12:37:45;1.50;99.90
48744;DHT22;34538;48.836;9.174;2022-12-11T12:40:19;1.50;99.90
48744;DHT22;34538;48.836;9.174;2022-12-11T12:42:55;1.40;99.90
48744;DHT22;34538;48.836;9.174;2022-12-11T12:45:28;1.30;99.90
48744;DHT22;34538;48.836;9.174;2022-12-11T12:47:56;1.30;99.90
48744;DHT22;34538;48.836;9.174;2022-12-11T12:50:25;1.20;99.90
48744;DHT22;34538;48.836;9.174;2022-12-11T12:52:54;1.10;99.90
48744;DHT22;34538;48.836;9.174;2022-12-11T12:55:23;1.10;99.90
48744;DHT22;34538;48.836;9.174;2022-12-11T12:57:54;1.10;99.90
48744;DHT22;34538;48.836;9.174;2022-12-11T13:00:30;1.10;99.90
48744;DHT22;34538;48.836;9.174;2022-12-11T13:02:59;1.10;99.90
48744;DHT22;34538;48.836;9.174;2022-12-11T13:05:29;1.00;99.90
48744;DHT22;34538;48.836;9.174;2022-12-11T13:08:01;0.90;99.90
48744;DHT22;34538;48.836;9.174;2022-12-11T13:10:31;0.90;99.90
48744;DHT22;34538;48.836;9.174;2022-12-11T13:12:59;0.80;99.90
48744;DHT22;34538;48.836;9.174;2022-12-11T13:15:35;0.70;99.90
48744;DHT22;34538;48.836;9.174;2022-12-11T13:20:48;0.60;99.90
48744;DHT22;34538;48.836;9.174;2022-12-11T13:23:26;0.50;99.90
48744;DHT22;34538;48.836;9.174;2022-12-11T13:25:55;0.50;99.90
48744;DHT22;34538;48.836;9.174;2022-12-11T13:28:32;0.50;99.90
48744;DHT22;34538;48.836;9.174;2022-12-11T13:31:05;0.40;99.90
48744;DHT22;34538;48.836;9.174;2022-12-11T13:33:39;0.40;99.90
48744;DHT22;34538;48.836;9.174;2022-12-11T13:36:31;0.40;99.90
48744;DHT22;34538;48.836;9.174;2022-12-11T13:39:04;0.40;99.90
48744;DHT22;34538;48.836;9.174;2022-12-11T13:41:34;0.30;99.90
48744;DHT22;34538;48.836;9.174;2022-12-11T13:44:02;0.40;99.90
48744;DHT22;34538;48.836;9.174;2022-12-11T13:46:34;0.40;99.90
48744;DHT22;34538;48.836;9.174;2022-12-11T13:49:04;0.40;99.90
48744;DHT22;34538;48.836;9.174;2022-12-11T13:51:32;0.50;99.90
48744;DHT22;34538;48.836;9.174;2022-12-11T13:54:15;0.50;99.90
48744;DHT22;34538;48.836;9.174;2022-12-11T13:56:53;0.50;99.90
48744;DHT22;34538;48.836;9.174;2022-12-11T13:59:23;0.60;99.90
48744;DHT22;34538;48.836;9.174;2022-12-11T14:01:53;0.60;99.90
48744;DHT22;34538;48.836;9.174;2022-12-11T14:04:21;0.60;99.90
48744;DHT22;34538;48.836;9.174;2022-12-11T14:06:49;0.60;99.90
48744;DHT22;34538;48.836;9.174;2022-12-11T14:09:19;0.60;99.90
48744;DHT22;34538;48.836;9.174;2022-12-11T14:11:48;0.60;99.90
48744;DHT22;34538;48.836;9.174;2022-12-11T14:14:18;0.60;99.90
48744;DHT22;34538;48.836;9.174;2022-12-11T14:16:47;0.60;99.90
48744;DHT22;34538;48.836;9.174;2022-12-11T14:19:16;0.60;99.90
48744;DHT22;34538;48.836;9.174;2022-12-11T14:21:55;0.70;99.90
48744;DHT22;34538;48.836;9.174;2022-12-11T14:24:23;0.60;99.90
48744;DHT22;34538;48.836;9.174;2022-12-11T14:26:51;0.70;99.90
48744;DHT22;34538;48.836;9.174;2022-12-11T14:29:26;0.70;99.90
48744;DHT22;34538;48.836;9.174;2022-12-11T14:31:56;0.70;99.90
48744;DHT22;34538;48.836;9.174;2022-12-11T14:34:27;0.70;99.90
48744;DHT22;34538;48.836;9.174;2022-12-11T14:36:55;0.70;99.90
48744;DHT22;34538;48.836;9.174;2022-12-11T14:39:27;0.60;99.90
48744;DHT22;34538;48.836;9.174;2022-12-11T14:41:58;0.70;99.90
48744;DHT22;34538;48.836;9.174;2022-12-11T14:44:29;0.60;99.90
48744;DHT22;34538;48.836;9.174;2022-12-11T14:47:01;0.70;99.90
48744;DHT22;34538;48.836;9.174;2022-12-11T14:49:37;0.70;99.90
48744;DHT22;34538;48.836;9.174;2022-12-11T14:52:12;0.60;99.90
48744;DHT22;34538;48.836;9.174;2022-12-11T14:54:44;0.70;99.90
48744;DHT22;34538;48.836;9.174;2022-12-11T14:57:18;0.70;99.90
48744;DHT22;34538;48.836;9.174;2022-12-11T14:59:47;0.70;99.90
48744;DHT22;34538;48.836;9.174;2022-12-11T15:02:24;0.70;99.90
48744;DHT22;34538;48.836;9.174;2022-12-11T15:05:13;0.70;99.90
48744;DHT22;34538;48.836;9.174;2022-12-11T15:07:52;0.70;99.90
48744;DHT22;34538;48.836;9.174;2022-12-11T15:10:28;0.70;99.90
48744;DHT22;34538;48.836;9.174;2022-12-11T15:12:57;0.70;99.90
48744;DHT22;34538;48.836;9.174;2022-12-11T15:15:25;0.70;99.90
48744;DHT22;34538;48.836;9.174;2022-12-11T15:17:53;0.70;99.90
48744;DHT22;34538;48.836;9.174;2022-12-11T15:20:23;0.70;99.90
48744;DHT22;34538;48.836;9.174;2022-12-11T15:22:51;0.70;99.90
48744;DHT22;34538;48.836;9.174;2022-12-11T15:25:20;0.70;99.90
48744;DHT22;34538;48.836;9.174;2022-12-11T15:27:51;0.70;99.90
48744;DHT22;34538;48.836;9.174;2022-12-11T15:30:23;0.60;99.90
48744;DHT22;34538;48.836;9.174;2022-12-11T15:33:01;0.70;99.90
48744;DHT22;34538;48.836;9.174;2022-12-11T15:35:28;0.70;99.90
48744;DHT22;34538;48.836;9.174;2022-12-11T15:37:56;0.70;99.90
48744;DHT22;34538;48.836;9.174;2022-12-11T15:40:24;0.70;99.90
48744;DHT22;34538;48.836;9.174;2022-12-11T15:42:54;0.70;99.90
48744;DHT22;34538;48.836;9.174;2022-12-11T15:45:23;0.70;99.90
48744;DHT22;34538;48.836;9.174;2022-12-11T15:47:53;0.70;99.90
48744;DHT22;34538;48.836;9.174;2022-12-11T15:50:22;0.70;99.90
48744;DHT22;34538;48.836;9.174;2022-12-11T15:52:50;0.70;99.90
48744;DHT22;34538;48.836;9.174;2022-12-11T15:55:18;0.80;99.90
48744;DHT22;34538;48.836;9.174;2022-12-11T15:57:47;0.70;99.90
48744;DHT22;34538;48.836;9.174;2022-12-11T16:00:18;0.70;99.90
48744;DHT22;34538;48.836;9.174;2022-12-11T16:02:46;0.70;99.90
48744;DHT22;34538;48.836;9.174;2022-12-11T16:05:13;0.80;99.90